map of OGX home
OGX - Airport
Location
City:  Ouargla, Ouargla, Algeria
Name:Ain Beida Airport
ICAO:DAUU
IATA:OGX

Details
Type:Airport (Aerodrome, Airfield)
Use:Public/Civil, International (customs port of entry)
Latitude:3155'53"N (31.931389)
Longitude:524'24"E (5.406667)
Elevation:499 ft (152 m)
Variation:1.53E (WMM2015v2 magnetic declination)
0.12 annual change
Runways:2
Longest:9843 × 148 ft (3000 × 45 m)

Time
Time Zone:UTC+1
Local Time:

Weather
METAR:DAUU 041400Z 32018KT 3000 DRSA NSC 16/M06 Q1020

Related Locations
Nearby:
Farthest:NZOP: 11815 mi / 19015 km
Opotiki, BOP, NZ

Find:

   beyond  
but within

Other Information
Maps:
NOTAMs:
Links:
Sources:

  
  • flag of Algeria
  

Sectional Chart

Flight Planning
at skyvector.com

Satellite Image

Google Maps Satellite view

 

Copyright © 2004-2019 Karl L. Swartz. All rights reserved.
The Great Circle Mapper name and logo are trademarks of the Great Circle Mapper.
All other trademarks mentioned herein belong to their respective owners.
Please see credits for attibutions and further copyright information.

  Follow gcmap on Facebook Follow gcmap on Twitter GCmap on LinkedIn

hCard Microformat

Geo Microformat